createdAt,value
2018-06-12T00:00:03.901Z,15.30
2018-06-12T00:02:32.515Z,15.40
2018-06-12T00:05:01.296Z,15.30
2018-06-12T00:07:29.884Z,15.30
2018-06-12T00:09:58.826Z,15.30
2018-06-12T00:14:55.791Z,15.20
2018-06-12T00:17:24.434Z,15.10
2018-06-12T00:19:53.321Z,15.10
2018-06-12T00:22:21.935Z,15.10
2018-06-12T00:24:50.766Z,15.00
2018-06-12T00:27:19.413Z,15.00
2018-06-12T00:29:48.167Z,15.00
2018-06-12T00:32:16.770Z,15.00
2018-06-12T00:34:45.374Z,15.00
2018-06-12T00:37:13.921Z,15.00
2018-06-12T00:39:42.452Z,15.00
2018-06-12T00:42:10.989Z,14.90
2018-06-12T00:44:39.970Z,14.80
2018-06-12T00:47:08.713Z,14.80
2018-06-12T00:49:37.249Z,14.80
2018-06-12T00:52:06.095Z,14.80
2018-06-12T00:54:34.709Z,14.80
2018-06-12T00:57:09.408Z,14.80
2018-06-12T00:59:38.263Z,14.80
2018-06-12T01:02:07.399Z,14.70
2018-06-12T01:04:36.991Z,14.70
2018-06-12T01:07:06.215Z,14.70
2018-06-12T01:09:34.923Z,14.70
2018-06-12T01:12:03.487Z,14.70
2018-06-12T01:14:32.227Z,14.70
2018-06-12T01:17:00.745Z,14.60
2018-06-12T01:19:29.412Z,14.60
2018-06-12T01:21:58.166Z,14.60
2018-06-12T01:24:26.753Z,14.60
2018-06-12T01:26:55.232Z,14.60
2018-06-12T01:29:24.129Z,14.60
2018-06-12T01:31:53.017Z,14.50
2018-06-12T01:34:21.538Z,14.50
2018-06-12T01:36:50.112Z,14.50
2018-06-12T01:39:18.790Z,14.50
2018-06-12T01:41:47.658Z,14.40
2018-06-12T01:44:16.300Z,14.40
2018-06-12T01:46:45.090Z,14.40
2018-06-12T01:49:13.604Z,14.40
2018-06-12T01:51:42.096Z,14.40
2018-06-12T01:54:10.649Z,14.30
2018-06-12T01:59:07.264Z,14.30
2018-06-12T02:01:35.772Z,14.40
2018-06-12T02:04:04.344Z,14.40
2018-06-12T02:06:32.834Z,14.40
2018-06-12T02:09:02.279Z,14.40
2018-06-12T02:11:31.370Z,14.40
2018-06-12T02:14:00.244Z,14.30
2018-06-12T02:16:29.018Z,14.30
2018-06-12T02:18:57.466Z,14.30
2018-06-12T02:21:25.997Z,14.30
2018-06-12T02:23:54.887Z,14.20
2018-06-12T02:26:23.865Z,14.20
2018-06-12T02:28:52.526Z,14.20
2018-06-12T02:31:21.202Z,14.20
2018-06-12T02:33:50.120Z,14.10
2018-06-12T02:36:19.188Z,14.10
2018-06-12T02:38:48.090Z,14.10
2018-06-12T02:41:16.846Z,14.10
2018-06-12T02:46:14.473Z,14.10
2018-06-12T02:48:43.224Z,14.10
2018-06-12T02:51:12.164Z,14.00
2018-06-12T02:53:41.150Z,14.00
2018-06-12T02:56:10.052Z,14.00
2018-06-12T02:58:39.070Z,14.00
2018-06-12T03:01:07.725Z,13.90
2018-06-12T03:03:37.128Z,13.90
2018-06-12T03:06:06.122Z,13.90
2018-06-12T03:08:34.686Z,13.90
2018-06-12T03:11:03.689Z,13.90
2018-06-12T03:13:32.608Z,13.90
2018-06-12T03:16:01.725Z,13.90
2018-06-12T03:18:30.690Z,13.90
2018-06-12T03:20:59.683Z,13.90
2018-06-12T03:23:28.613Z,13.90
2018-06-12T03:25:57.960Z,13.90
2018-06-12T03:28:26.530Z,13.90
2018-06-12T03:30:54.990Z,13.90
2018-06-12T03:33:23.746Z,13.90
2018-06-12T03:35:52.629Z,13.90
2018-06-12T03:38:21.194Z,13.90
2018-06-12T03:40:50.270Z,13.90
2018-06-12T03:43:18.937Z,13.90
2018-06-12T03:45:47.778Z,13.80
2018-06-12T03:48:16.785Z,13.80
2018-06-12T03:50:46.528Z,13.80
2018-06-12T03:53:15.107Z,13.80
2018-06-12T03:55:44.982Z,13.90
2018-06-12T03:58:13.642Z,13.90
2018-06-12T04:00:42.869Z,13.90
2018-06-12T04:03:11.776Z,13.90
2018-06-12T04:05:40.543Z,13.90
2018-06-12T04:08:09.286Z,13.90
2018-06-12T04:13:06.785Z,14.00
2018-06-12T04:15:36.623Z,14.00
2018-06-12T04:18:05.614Z,13.90
2018-06-12T04:20:34.453Z,14.00
2018-06-12T04:23:03.356Z,13.90
2018-06-12T04:28:00.596Z,13.90
2018-06-12T04:30:29.454Z,13.90
2018-06-12T04:32:58.448Z,13.90
2018-06-12T04:35:27.208Z,13.90
2018-06-12T04:37:55.874Z,13.90
2018-06-12T04:40:24.690Z,13.90
2018-06-12T04:42:53.659Z,13.90
2018-06-12T04:45:22.219Z,13.90
2018-06-12T04:47:51.104Z,13.90
2018-06-12T04:50:20.297Z,13.90
2018-06-12T04:52:49.427Z,13.90
2018-06-12T04:55:18.426Z,13.90
2018-06-12T04:57:49.242Z,13.90
2018-06-12T05:00:18.789Z,13.90
2018-06-12T05:05:16.882Z,13.90
2018-06-12T05:07:45.903Z,13.90
2018-06-12T05:10:15.139Z,13.90
2018-06-12T05:12:44.393Z,14.00
2018-06-12T05:17:41.969Z,14.10
2018-06-12T05:20:10.871Z,14.10
2018-06-12T05:22:39.663Z,14.20
2018-06-12T05:25:08.468Z,14.20
2018-06-12T05:27:37.270Z,14.30
2018-06-12T05:30:06.044Z,14.30
2018-06-12T05:32:34.799Z,14.40
2018-06-12T05:35:04.388Z,14.40
2018-06-12T05:37:33.217Z,14.50
2018-06-12T05:40:02.905Z,14.50
2018-06-12T05:42:31.775Z,14.50
2018-06-12T05:45:00.866Z,14.60
2018-06-12T05:47:30.340Z,14.60
2018-06-12T05:49:59.123Z,14.60
2018-06-12T05:52:28.504Z,14.70
2018-06-12T05:54:57.481Z,14.80
2018-06-12T05:57:26.458Z,14.90
2018-06-12T05:59:55.287Z,15.00
2018-06-12T06:02:24.383Z,15.10
2018-06-12T06:04:53.119Z,15.30
2018-06-12T06:07:22.309Z,15.40
2018-06-12T06:09:51.052Z,15.50
2018-06-12T06:12:19.749Z,15.70
2018-06-12T06:14:48.895Z,15.80
2018-06-12T06:17:18.369Z,15.80
2018-06-12T06:19:47.544Z,15.80
2018-06-12T06:22:16.734Z,15.70
2018-06-12T06:24:45.361Z,15.70
2018-06-12T06:27:14.154Z,15.70
2018-06-12T06:29:43.468Z,15.70
2018-06-12T06:32:12.101Z,15.60
2018-06-12T06:34:40.864Z,15.50
2018-06-12T06:37:10.147Z,15.40
2018-06-12T06:39:39.283Z,15.20
2018-06-12T06:42:09.929Z,15.10
2018-06-12T06:44:38.862Z,15.00
2018-06-12T06:47:07.992Z,14.90
2018-06-12T06:49:36.966Z,14.90
2018-06-12T06:52:06.847Z,14.90
2018-06-12T06:54:35.938Z,14.90
2018-06-12T06:57:05.184Z,15.00
2018-06-12T06:59:34.224Z,15.00
2018-06-12T07:04:32.559Z,15.10
2018-06-12T07:07:02.282Z,15.20
2018-06-12T07:09:31.348Z,15.30
2018-06-12T07:12:00.246Z,15.40
2018-06-12T07:14:29.690Z,15.50
2018-06-12T07:16:58.546Z,15.60
2018-06-12T07:19:27.744Z,15.70
2018-06-12T07:21:56.537Z,15.70
2018-06-12T07:24:25.786Z,15.80
2018-06-12T07:26:54.550Z,15.90
2018-06-12T07:29:23.268Z,16.00
2018-06-12T07:31:52.534Z,16.00
2018-06-12T07:34:21.339Z,16.10
2018-06-12T07:36:50.094Z,16.10
2018-06-12T07:39:19.118Z,16.20
2018-06-12T07:41:47.932Z,16.20
2018-06-12T07:44:16.832Z,16.40
2018-06-12T07:46:45.665Z,16.50
2018-06-12T07:49:14.172Z,16.50
2018-06-12T07:51:42.806Z,16.40
2018-06-12T07:54:13.078Z,16.40
2018-06-12T07:56:41.901Z,16.30
2018-06-12T07:59:10.469Z,16.20
2018-06-12T08:01:39.316Z,16.20
2018-06-12T08:04:08.122Z,16.20
2018-06-12T08:06:36.616Z,16.20
2018-06-12T08:09:07.352Z,16.10
2018-06-12T08:11:36.603Z,16.10
2018-06-12T08:14:05.433Z,16.00
2018-06-12T08:16:34.007Z,16.00
2018-06-12T08:19:02.951Z,16.00
2018-06-12T08:21:32.178Z,16.10
2018-06-12T08:26:29.062Z,16.30
2018-06-12T08:28:58.846Z,16.50
2018-06-12T08:33:56.062Z,16.80
2018-06-12T08:36:24.940Z,16.80
2018-06-12T08:38:53.736Z,16.70
2018-06-12T08:41:22.996Z,16.50
2018-06-12T08:43:52.274Z,16.30
2018-06-12T08:46:21.629Z,16.20
2018-06-12T08:48:51.624Z,16.20
2018-06-12T08:51:20.516Z,16.20
2018-06-12T08:53:49.556Z,16.10
2018-06-12T08:56:18.297Z,16.00
2018-06-12T09:01:15.369Z,16.00
2018-06-12T09:03:44.211Z,16.00
2018-06-12T09:06:12.960Z,16.10
2018-06-12T09:08:41.780Z,16.20
2018-06-12T09:11:10.379Z,16.40
2018-06-12T09:13:39.311Z,16.50
2018-06-12T09:16:08.384Z,16.60
2018-06-12T09:18:37.720Z,16.70
2018-06-12T09:21:06.842Z,16.70
2018-06-12T09:23:35.439Z,16.70
2018-06-12T09:26:05.568Z,16.70
2018-06-12T09:28:34.411Z,16.70
2018-06-12T09:31:03.823Z,16.80
2018-06-12T09:33:32.817Z,17.00
2018-06-12T09:36:06.869Z,17.10
2018-06-12T09:38:35.480Z,17.30
2018-06-12T09:41:04.482Z,17.50
2018-06-12T09:43:33.504Z,17.50
2018-06-12T09:46:02.224Z,17.60
2018-06-12T09:48:31.424Z,17.70
2018-06-12T09:51:00.515Z,17.90
2018-06-12T09:53:29.241Z,17.90
2018-06-12T09:55:57.909Z,17.90
2018-06-12T09:58:26.490Z,17.90
2018-06-12T10:01:00.699Z,17.80
2018-06-12T10:03:31.897Z,17.80
2018-06-12T10:06:00.824Z,17.80
2018-06-12T10:08:30.035Z,17.90
2018-06-12T10:10:58.947Z,17.90
2018-06-12T10:13:28.185Z,17.80
2018-06-12T10:18:25.726Z,17.70
2018-06-12T10:20:54.697Z,17.70
2018-06-12T10:23:23.433Z,17.60
2018-06-12T10:25:52.709Z,17.60
2018-06-12T10:28:21.639Z,17.70
2018-06-12T10:33:19.264Z,17.80
2018-06-12T10:35:48.093Z,17.80
2018-06-12T10:38:16.880Z,17.70
2018-06-12T10:40:45.954Z,17.70
2018-06-12T10:43:14.632Z,17.70
2018-06-12T10:45:44.474Z,17.60
2018-06-12T10:48:13.976Z,17.70
2018-06-12T10:50:42.851Z,17.70
2018-06-12T10:53:11.671Z,17.70
2018-06-12T10:55:41.071Z,17.70
2018-06-12T10:58:10.424Z,17.80
2018-06-12T11:00:40.025Z,17.80
2018-06-12T11:03:08.681Z,17.90
2018-06-12T11:05:37.535Z,17.90
2018-06-12T11:08:06.109Z,18.00
2018-06-12T11:10:34.831Z,18.10
2018-06-12T11:13:04.090Z,18.20
2018-06-12T11:15:33.088Z,18.20
2018-06-12T11:18:01.841Z,18.30
2018-06-12T11:20:31.009Z,18.40
2018-06-12T11:22:59.835Z,18.50
2018-06-12T11:25:28.754Z,18.60
2018-06-12T11:27:57.834Z,18.60
2018-06-12T11:30:26.730Z,18.50
2018-06-12T11:32:55.919Z,18.30
2018-06-12T11:35:24.845Z,18.10
2018-06-12T11:37:53.891Z,18.00
2018-06-12T11:45:19.822Z,18.10
2018-06-12T11:47:48.675Z,18.30
2018-06-12T11:50:17.416Z,18.40
2018-06-12T11:52:47.249Z,18.60
2018-06-12T11:57:44.560Z,18.70
2018-06-12T12:00:14.654Z,18.70
2018-06-12T12:02:44.097Z,18.60
2018-06-12T12:05:12.976Z,18.60
2018-06-12T12:07:41.972Z,18.60
2018-06-12T12:10:10.517Z,18.70
2018-06-12T12:12:39.366Z,18.80
2018-06-12T12:15:08.481Z,18.80
2018-06-12T12:17:37.252Z,18.80
2018-06-12T12:20:07.532Z,18.70
2018-06-12T12:25:04.974Z,18.40
2018-06-12T12:27:34.335Z,18.30
2018-06-12T12:30:03.340Z,18.20
2018-06-12T12:32:32.297Z,18.10
2018-06-12T12:35:01.090Z,18.10
2018-06-12T12:39:59.357Z,18.10
2018-06-12T12:42:28.215Z,18.10
2018-06-12T12:44:57.172Z,18.00
2018-06-12T12:47:26.053Z,18.00
2018-06-12T12:49:55.063Z,17.90
2018-06-12T12:52:24.104Z,17.80
2018-06-12T12:54:53.370Z,17.80
2018-06-12T12:57:23.821Z,17.80
2018-06-12T12:59:55.506Z,17.80
2018-06-12T13:02:24.785Z,17.80
2018-06-12T13:04:59.032Z,17.80
2018-06-12T13:07:34.790Z,17.90
2018-06-12T13:10:06.866Z,17.90
2018-06-12T13:12:36.096Z,18.00
2018-06-12T13:15:05.767Z,18.00
2018-06-12T13:17:36.079Z,18.00
2018-06-12T13:20:05.146Z,17.90
2018-06-12T13:22:34.503Z,18.00
2018-06-12T13:27:33.474Z,18.00
2018-06-12T13:30:02.904Z,18.00
2018-06-12T13:32:31.669Z,18.00
2018-06-12T13:37:31.675Z,18.20
2018-06-12T13:40:01.677Z,18.20
2018-06-12T13:42:31.592Z,18.30
2018-06-12T13:45:00.494Z,18.30
2018-06-12T13:47:30.662Z,18.30
2018-06-12T13:50:00.082Z,18.20
2018-06-12T13:52:30.154Z,18.10
2018-06-12T13:54:59.439Z,18.00
2018-06-12T13:57:28.203Z,18.00
2018-06-12T13:59:57.809Z,18.00
2018-06-12T14:02:26.927Z,18.00
2018-06-12T14:04:56.317Z,18.00
2018-06-12T14:09:54.913Z,18.00
2018-06-12T14:12:24.230Z,18.00
2018-06-12T14:14:53.389Z,18.00
2018-06-12T14:17:22.609Z,18.00
2018-06-12T14:19:52.483Z,18.10
2018-06-12T14:22:21.524Z,18.20
2018-06-12T14:24:50.644Z,18.30
2018-06-12T14:27:19.419Z,18.30
2018-06-12T14:29:49.428Z,18.40
2018-06-12T14:32:18.240Z,18.40
2018-06-12T14:34:48.184Z,18.50
2018-06-12T14:37:17.335Z,18.60
2018-06-12T14:42:14.684Z,18.70
2018-06-12T14:44:43.692Z,18.70
2018-06-12T14:47:13.259Z,18.60
2018-06-12T14:49:42.063Z,18.60
2018-06-12T14:52:10.875Z,18.60
2018-06-12T14:54:39.733Z,18.70
2018-06-12T14:57:09.286Z,18.60
2018-06-12T14:59:38.482Z,18.60
2018-06-12T15:02:07.440Z,18.60
2018-06-12T15:04:36.437Z,18.60
2018-06-12T15:07:06.447Z,18.50
2018-06-12T15:09:35.351Z,18.50
2018-06-12T15:12:05.040Z,18.50
2018-06-12T15:14:33.730Z,18.60
2018-06-12T15:17:02.830Z,18.70
2018-06-12T15:19:32.562Z,18.60
2018-06-12T15:24:29.992Z,18.70
2018-06-12T15:26:59.010Z,18.70
2018-06-12T15:29:28.096Z,18.60
2018-06-12T15:31:57.857Z,18.60
2018-06-12T15:34:26.682Z,18.60
2018-06-12T15:36:55.602Z,18.40
2018-06-12T15:39:24.751Z,18.40
2018-06-12T15:41:53.459Z,18.30
2018-06-12T15:49:20.017Z,18.00
2018-06-12T15:51:48.979Z,17.90
2018-06-12T15:54:17.993Z,17.90
2018-06-12T15:56:47.054Z,17.80
2018-06-12T15:59:15.664Z,17.80
2018-06-12T16:01:45.654Z,17.90
2018-06-12T16:04:15.626Z,17.80
2018-06-12T16:09:13.575Z,17.80
2018-06-12T16:11:42.825Z,17.80
2018-06-12T16:16:41.166Z,17.80
2018-06-12T16:19:09.971Z,17.70
2018-06-12T16:21:39.225Z,17.70
2018-06-12T16:24:08.532Z,17.60
2018-06-12T16:26:37.718Z,17.60
2018-06-12T16:31:35.397Z,17.50
2018-06-12T16:36:32.437Z,17.60
2018-06-12T16:39:01.722Z,17.60
2018-06-12T16:41:30.917Z,17.70
2018-06-12T16:44:00.214Z,17.70
2018-06-12T16:46:29.215Z,17.80
2018-06-12T16:48:58.594Z,17.80
2018-06-12T16:51:28.006Z,17.70
2018-06-12T16:53:56.684Z,17.70
2018-06-12T16:56:25.564Z,17.70
2018-06-12T16:58:54.602Z,17.70
2018-06-12T17:01:23.302Z,17.60
2018-06-12T17:03:52.168Z,17.50
2018-06-12T17:06:21.527Z,17.50
2018-06-12T17:08:50.601Z,17.40
2018-06-12T17:11:19.278Z,17.30
2018-06-12T17:13:48.804Z,17.30
2018-06-12T17:16:17.819Z,17.30
2018-06-12T17:18:46.938Z,17.20
2018-06-12T17:21:15.774Z,17.20
2018-06-12T17:23:44.859Z,17.10
2018-06-12T17:26:14.196Z,17.10
2018-06-12T17:31:12.348Z,17.00
2018-06-12T17:33:41.988Z,17.00
2018-06-12T17:36:10.728Z,17.00
2018-06-12T17:38:39.945Z,16.90
2018-06-12T17:41:08.988Z,16.90
2018-06-12T17:48:36.124Z,16.80
2018-06-12T17:51:04.823Z,16.70
2018-06-12T17:53:33.691Z,16.70
2018-06-12T17:56:03.025Z,16.60
2018-06-12T18:03:53.565Z,16.50
2018-06-12T18:06:22.757Z,16.40
2018-06-12T18:08:51.804Z,16.40
2018-06-12T18:11:21.001Z,16.50
2018-06-12T18:13:49.881Z,16.40
2018-06-12T18:16:19.141Z,16.40
2018-06-12T18:18:48.312Z,16.40
2018-06-12T18:21:17.347Z,16.40
2018-06-12T18:23:46.354Z,16.30
2018-06-12T18:26:15.044Z,16.30
2018-06-12T18:28:44.024Z,16.30
2018-06-12T18:31:12.815Z,16.30
2018-06-12T18:33:42.251Z,16.20
2018-06-12T18:36:10.787Z,16.10
2018-06-12T18:38:39.863Z,16.10
2018-06-12T18:41:08.953Z,16.00
2018-06-12T18:43:37.929Z,15.90
2018-06-12T18:46:08.407Z,15.80
2018-06-12T18:58:28.839Z,15.60
2018-06-12T19:03:51.782Z,15.50
2018-06-12T19:06:21.015Z,15.40
2018-06-12T19:08:50.135Z,15.30
2018-06-12T19:11:20.527Z,15.20
2018-06-12T19:13:49.434Z,15.20
2018-06-12T19:16:18.586Z,15.10
2018-06-12T19:18:47.676Z,15.10
2018-06-12T19:21:17.258Z,15.00
2018-06-12T19:23:46.526Z,15.00
2018-06-12T19:26:15.872Z,14.90
2018-06-12T19:28:48.119Z,14.90
2018-06-12T19:31:19.046Z,14.90
2018-06-12T19:33:49.251Z,14.80
2018-06-12T19:41:46.576Z,14.70
2018-06-12T19:44:17.202Z,14.70
2018-06-12T19:46:47.175Z,14.60
2018-06-12T19:49:16.693Z,14.60
2018-06-12T19:54:16.050Z,14.50
2018-06-12T19:56:47.850Z,14.50
2018-06-12T19:59:19.138Z,14.50
2018-06-12T20:01:48.650Z,14.40
2018-06-12T20:04:18.556Z,14.30
2018-06-12T20:06:48.253Z,14.30
2018-06-12T20:09:17.542Z,14.30
2018-06-12T20:11:47.961Z,14.20
2018-06-12T20:14:17.061Z,14.20
2018-06-12T20:16:47.232Z,14.20
2018-06-12T20:19:16.500Z,14.20
2018-06-12T20:21:45.698Z,14.20
2018-06-12T20:26:44.804Z,14.20
2018-06-12T20:31:43.294Z,14.20
2018-06-12T20:34:13.534Z,14.20
2018-06-12T20:36:42.931Z,14.20
2018-06-12T20:41:40.962Z,14.20
2018-06-12T20:44:09.910Z,14.20
2018-06-12T20:46:38.685Z,14.20
2018-06-12T20:49:07.282Z,14.20
2018-06-12T20:51:36.026Z,14.20
2018-06-12T20:54:05.725Z,14.10
2018-06-12T20:56:35.057Z,14.10
2018-06-12T20:59:04.012Z,14.10
2018-06-12T21:01:32.853Z,14.10
2018-06-12T21:04:01.366Z,14.10
2018-06-12T21:08:58.723Z,14.00
2018-06-12T21:11:27.515Z,14.00
2018-06-12T21:13:56.177Z,13.90
2018-06-12T21:16:25.174Z,13.90
2018-06-12T21:18:53.846Z,13.80
2018-06-12T21:21:22.356Z,13.80
2018-06-12T21:23:51.075Z,13.80
2018-06-12T21:26:19.815Z,13.80
2018-06-12T21:28:48.707Z,13.80
2018-06-12T21:31:17.453Z,13.80
2018-06-12T21:36:14.809Z,13.80
2018-06-12T21:38:43.480Z,13.80
2018-06-12T21:41:12.166Z,13.70
2018-06-12T21:43:40.961Z,13.70
2018-06-12T21:46:09.647Z,13.70
2018-06-12T21:48:38.405Z,13.70
2018-06-12T21:51:07.297Z,13.70
2018-06-12T21:53:36.128Z,13.70
2018-06-12T21:56:04.845Z,13.60
2018-06-12T21:58:33.322Z,13.60
2018-06-12T22:01:01.885Z,13.70
2018-06-12T22:03:31.128Z,13.70
2018-06-12T22:06:00.049Z,13.70
2018-06-12T22:08:28.724Z,13.70
2018-06-12T22:10:57.597Z,13.70
2018-06-12T22:13:26.288Z,13.60
2018-06-12T22:15:55.052Z,13.60
2018-06-12T22:20:51.960Z,13.60
2018-06-12T22:23:20.552Z,13.60
2018-06-12T22:25:49.708Z,13.60
2018-06-12T22:28:18.568Z,13.60
2018-06-12T22:30:47.194Z,13.60
2018-06-12T22:33:16.108Z,13.60
2018-06-12T22:35:44.840Z,13.60
2018-06-12T22:38:13.630Z,13.60
2018-06-12T22:40:42.359Z,13.60
2018-06-12T22:43:11.334Z,13.60
2018-06-12T22:45:40.122Z,13.60
2018-06-12T22:48:08.784Z,13.60
2018-06-12T22:50:37.478Z,13.60
2018-06-12T22:53:06.180Z,13.60
2018-06-12T22:55:35.034Z,13.50
2018-06-12T22:58:03.868Z,13.50
2018-06-12T23:00:32.680Z,13.50
2018-06-12T23:03:01.722Z,13.50
2018-06-12T23:05:30.325Z,13.50
2018-06-12T23:07:59.188Z,13.50
2018-06-12T23:10:27.778Z,13.50
2018-06-12T23:12:56.992Z,13.50
2018-06-12T23:15:25.509Z,13.50
2018-06-12T23:17:54.143Z,13.50
2018-06-12T23:20:34.110Z,13.50
2018-06-12T23:23:02.524Z,13.50
2018-06-12T23:25:31.168Z,13.40
2018-06-12T23:27:59.936Z,13.40
2018-06-12T23:30:28.582Z,13.40
2018-06-12T23:32:57.156Z,13.40
2018-06-12T23:37:54.593Z,13.40
2018-06-12T23:40:23.802Z,13.40
2018-06-12T23:42:52.356Z,13.40
2018-06-12T23:45:21.025Z,13.50
2018-06-12T23:47:49.829Z,13.50
2018-06-12T23:50:18.432Z,13.40
2018-06-12T23:52:47.076Z,13.40
2018-06-12T23:55:15.615Z,13.40
2018-06-12T23:57:44.515Z,13.40
